Terminal Aerodrome Forecast
Issued by NWS

Home | Current Version | Previous Version | Text Only | Print | Product List | Glossary On
Versions: 1 2 3 4 5 6 7 8 9 10 11 12 13 14 15 16 17 18 19 20 21 22
000
FTUS45 KCYS 111441 AAC
TAFRWL
TAF AMD
KRWL 111441Z 1115/1212 26019G30KT P6SM BKN080
      TEMPO 1115/1117 3SM -SN BKN025
     FM111700 25020G32KT P6SM OVC040
     FM111900 25025G35KT P6SM SCT100=

USA.gov is the U.S. government's official web portal to all federal, state and local government web resources and services.